EHAM/AMS METAR and TAF weather

Enter ICAO airport designator
Station Type Date Time Source
EHAM METAR 2020/02/21 00:25 UTC NOAA

EHAM 210025Z 27020KT 9999 FEW028 06/01 Q1017 NOSIG


Station Type Date Time Source
EHAM Decoded METAR 2020/02/21 00:25 UTC NOAA

Amsterdam Airport Schiphol, Netherlands (EHAM) 52-18N 004-46E -2M
Feb 20, 2020 - 07:25 PM EST / 2020.02.21 0025 UTC
Wind: from the W (270 degrees) at 23 MPH (20 KT):0
Visibility: greater than 7 mile(s):0
Sky conditions: mostly clear
Temperature: 42 F (6 C)
Dew Point: 33 F (1 C)
Relative Humidity: 70%
Pressure (altimeter): 30.03 in. Hg (1017 hPa)
ob: EHAM 210025Z 27020KT 9999 FEW028 06/01 Q1017 NOSIG
cycle: 0

Station Type Date Time Source
EHAM TAF 2020/02/20 18:29 UTC NOAA

TAF EHAM 201659Z 2018/2124 30025G35KT 9999 -RA SCT006 BKN025
TEMPO 2018/2019 3000 +RA BKN006
BECMG 2019/2021 28020G30KT
TEMPO 2019/2021 29023G35KT 6000 SHRA BKN012 SCT020CB
BECMG 2104/2107 25015KT
BECMG 2111/2114 23022G32KT BKN025 PROB40
TEMPO 2115/2124 6000 -RA BKN018

Example: see airport list